createdAt,value
2022-11-21T00:00:04.740Z,15.85
2022-11-21T00:02:49.735Z,15.15
2022-11-21T00:05:42.012Z,15.18
2022-11-21T00:08:26.699Z,15.75
2022-11-21T00:13:57.258Z,13.20
2022-11-21T00:16:42.209Z,14.32
2022-11-21T00:22:11.682Z,14.27
2022-11-21T00:24:57.449Z,16.80
2022-11-21T00:27:42.315Z,17.52
2022-11-21T00:30:27.837Z,17.40
2022-11-21T00:33:12.340Z,17.83
2022-11-21T00:38:41.830Z,18.92
2022-11-21T00:44:11.226Z,18.90
2022-11-21T00:49:40.686Z,18.83
2022-11-21T00:52:25.765Z,18.80
2022-11-21T00:55:10.686Z,19.98
2022-11-21T01:00:40.918Z,15.82
2022-11-21T01:03:25.763Z,16.45
2022-11-21T01:06:13.219Z,18.42
2022-11-21T01:08:58.242Z,18.58
2022-11-21T01:11:43.153Z,16.50
2022-11-21T01:14:28.310Z,17.60
2022-11-21T01:17:13.349Z,17.58
2022-11-21T01:19:57.888Z,15.75
2022-11-21T01:22:42.815Z,14.68
2022-11-21T01:25:27.785Z,14.77
2022-11-21T01:31:04.970Z,13.88
2022-11-21T01:33:49.879Z,15.27
2022-11-21T01:36:34.977Z,16.98
2022-11-21T01:42:04.449Z,15.73
2022-11-21T01:44:52.815Z,16.05
2022-11-21T01:47:37.814Z,16.52
2022-11-21T01:50:22.512Z,16.35
2022-11-21T01:55:53.032Z,14.10
2022-11-21T01:58:40.540Z,15.27
2022-11-21T02:01:26.897Z,15.25
2022-11-21T02:04:11.824Z,15.23
2022-11-21T02:09:46.342Z,15.48
2022-11-21T02:12:37.717Z,13.10
2022-11-21T02:15:25.237Z,14.15
2022-11-21T02:18:09.751Z,15.82
2022-11-21T02:21:05.965Z,18.17
2022-11-21T02:24:04.888Z,15.90
2022-11-21T02:26:49.545Z,15.95
2022-11-21T02:29:34.516Z,16.38
2022-11-21T02:35:08.508Z,15.07
2022-11-21T02:41:11.088Z,15.75
2022-11-21T02:44:03.245Z,15.25
2022-11-21T02:46:50.317Z,16.73
2022-11-21T02:49:59.535Z,15.88
2022-11-21T02:52:44.110Z,16.70
2022-11-21T02:55:29.193Z,17.45
2022-11-21T02:58:14.261Z,15.60
2022-11-21T03:03:44.210Z,14.43
2022-11-21T03:06:29.236Z,13.95
2022-11-21T03:09:14.136Z,13.95
2022-11-21T03:11:59.038Z,15.95
2022-11-21T03:14:43.956Z,14.50
2022-11-21T03:17:28.882Z,15.77
2022-11-21T03:20:14.042Z,16.85
2022-11-21T03:22:59.010Z,16.65
2022-11-21T03:25:44.095Z,14.35
2022-11-21T03:28:29.300Z,14.25
2022-11-21T03:31:13.913Z,14.52
2022-11-21T03:33:58.897Z,14.48
2022-11-21T03:36:43.664Z,15.30
2022-11-21T03:42:16.104Z,14.00
2022-11-21T03:47:45.461Z,13.55
2022-11-21T03:50:30.375Z,13.30
2022-11-21T03:53:15.219Z,13.10
2022-11-21T03:56:00.167Z,13.07
2022-11-21T03:58:45.232Z,13.98
2022-11-21T04:01:35.247Z,13.88
2022-11-21T04:04:21.345Z,13.27
2022-11-21T04:09:51.289Z,11.85
2022-11-21T04:15:20.885Z,12.77
2022-11-21T04:18:06.102Z,13.50
2022-11-21T04:21:05.093Z,11.75
2022-11-21T04:23:50.263Z,14.00
2022-11-21T04:29:19.670Z,13.90
2022-11-21T04:32:04.852Z,14.45
2022-11-21T04:34:49.921Z,13.50
2022-11-21T04:37:35.005Z,12.63
2022-11-21T04:40:19.849Z,13.63
2022-11-21T04:43:05.697Z,14.88
2022-11-21T04:45:50.268Z,15.27
2022-11-21T04:51:19.924Z,14.38
2022-11-21T04:56:50.070Z,15.52
2022-11-21T05:02:19.705Z,14.60
2022-11-21T05:05:05.156Z,13.88
2022-11-21T05:07:50.151Z,14.40
2022-11-21T05:10:54.950Z,12.82
2022-11-21T05:13:39.532Z,13.23
2022-11-21T05:19:09.137Z,13.02
2022-11-21T05:24:38.451Z,12.20
2022-11-21T05:30:08.579Z,11.05
2022-11-21T05:32:53.473Z,11.60
2022-11-21T05:38:28.574Z,9.65
2022-11-21T05:43:58.188Z,11.15
2022-11-21T05:46:43.317Z,14.25
2022-11-21T05:52:12.509Z,12.90
2022-11-21T05:54:57.354Z,13.23
2022-11-21T06:00:28.402Z,12.60
2022-11-21T06:03:28.274Z,13.25
2022-11-21T06:06:17.660Z,14.25
2022-11-21T06:09:04.538Z,13.98
2022-11-21T06:11:49.311Z,14.18
2022-11-21T06:14:34.189Z,12.98
2022-11-21T06:17:19.258Z,14.02
2022-11-21T06:20:04.638Z,14.52
2022-11-21T06:22:49.810Z,13.35
2022-11-21T06:25:34.770Z,13.43
2022-11-21T06:28:19.607Z,11.52
2022-11-21T06:31:06.443Z,12.40
2022-11-21T06:33:53.191Z,12.85
2022-11-21T06:36:38.526Z,14.52
2022-11-21T06:42:09.333Z,12.02
2022-11-21T06:44:54.242Z,12.75
2022-11-21T06:47:39.138Z,13.70
2022-11-21T06:50:24.382Z,12.20
2022-11-21T06:56:04.853Z,13.40
2022-11-21T06:58:49.784Z,12.88
2022-11-21T07:01:35.313Z,13.30
2022-11-21T07:04:21.567Z,11.73
2022-11-21T07:07:07.291Z,11.93
2022-11-21T07:09:52.468Z,12.43
2022-11-21T07:13:00.720Z,11.82
2022-11-21T07:15:47.209Z,10.15
2022-11-21T07:18:33.584Z,10.25
2022-11-21T07:21:18.635Z,9.10
2022-11-21T07:24:04.029Z,8.85
2022-11-21T07:26:52.060Z,7.78
2022-11-21T07:29:38.461Z,8.77
2022-11-21T07:35:11.979Z,7.18
2022-11-21T07:38:07.047Z,6.88
2022-11-21T07:40:53.093Z,7.97
2022-11-21T07:43:37.842Z,8.95
2022-11-21T07:46:54.988Z,8.77
2022-11-21T07:49:40.608Z,8.77
2022-11-21T07:52:31.747Z,9.35
2022-11-21T07:58:13.368Z,9.52
2022-11-21T08:00:58.460Z,8.88
2022-11-21T08:03:45.505Z,8.50
2022-11-21T08:06:30.409Z,8.45
2022-11-21T08:12:00.451Z,7.40
2022-11-21T08:14:47.156Z,8.43
2022-11-21T08:17:33.113Z,7.88
2022-11-21T08:21:06.164Z,8.13
2022-11-21T08:24:19.260Z,7.55
2022-11-21T08:27:04.569Z,9.15
2022-11-21T08:29:49.740Z,10.23
2022-11-21T08:33:05.106Z,10.48
2022-11-21T08:35:53.910Z,9.30
2022-11-21T08:38:41.504Z,11.38
2022-11-21T08:41:53.361Z,10.65
2022-11-21T08:44:44.216Z,9.60
2022-11-21T08:50:41.701Z,8.07
2022-11-21T08:56:14.861Z,9.15
2022-11-21T08:59:07.407Z,9.95
2022-11-21T09:01:52.965Z,8.35
2022-11-21T09:04:44.111Z,9.05
2022-11-21T09:07:33.596Z,9.13
2022-11-21T09:10:18.635Z,9.30
2022-11-21T09:13:04.153Z,8.30
2022-11-21T09:16:08.030Z,8.02
2022-11-21T09:21:38.548Z,9.02
2022-11-21T09:27:08.622Z,7.90
2022-11-21T09:29:55.791Z,7.88
2022-11-21T09:32:40.889Z,8.40
2022-11-21T09:38:11.038Z,11.85
2022-11-21T09:41:51.568Z,11.90
2022-11-21T09:45:10.485Z,9.30
2022-11-21T09:48:12.261Z,8.18
2022-11-21T09:51:05.561Z,8.18
2022-11-21T09:54:05.213Z,7.70
2022-11-21T09:56:53.189Z,8.00
2022-11-21T09:59:39.580Z,8.63
2022-11-21T10:02:26.016Z,7.20
2022-11-21T10:05:15.616Z,7.88
2022-11-21T10:08:07.621Z,7.78
2022-11-21T10:11:11.540Z,7.03
2022-11-21T10:14:06.247Z,6.43
2022-11-21T10:17:16.984Z,6.50
2022-11-21T10:20:25.426Z,7.22
2022-11-21T10:23:36.280Z,7.20
2022-11-21T10:26:45.381Z,7.45
2022-11-21T10:29:36.849Z,7.25
2022-11-21T10:32:45.412Z,7.75
2022-11-21T10:35:45.507Z,7.32
2022-11-21T10:38:36.306Z,7.70
2022-11-21T10:41:43.873Z,7.10
2022-11-21T10:44:48.423Z,7.47
2022-11-21T10:47:37.241Z,9.10
2022-11-21T10:50:44.849Z,8.88
2022-11-21T10:53:49.860Z,7.80
2022-11-21T10:56:35.919Z,7.95
2022-11-21T10:59:30.495Z,8.60
2022-11-21T11:02:19.161Z,8.07
2022-11-21T11:05:29.151Z,7.95
2022-11-21T11:08:14.808Z,7.93
2022-11-21T11:11:18.174Z,8.23
2022-11-21T11:14:12.950Z,7.72
2022-11-21T11:17:01.929Z,7.40
2022-11-21T11:20:01.083Z,7.70
2022-11-21T11:22:46.070Z,7.15
2022-11-21T11:25:35.327Z,8.00
2022-11-21T11:28:20.965Z,7.05
2022-11-21T11:31:10.109Z,8.52
2022-11-21T11:33:56.267Z,7.55
2022-11-21T11:36:55.782Z,6.70
2022-11-21T11:40:12.411Z,6.55
2022-11-21T11:43:53.630Z,7.20
2022-11-21T11:47:16.318Z,7.50
2022-11-21T11:50:42.091Z,9.15
2022-11-21T11:54:22.604Z,8.82
2022-11-21T11:57:31.262Z,8.98
2022-11-21T12:00:56.533Z,9.55
2022-11-21T12:03:46.981Z,7.68
2022-11-21T12:10:20.322Z,7.47
2022-11-21T12:13:13.334Z,7.93
2022-11-21T12:16:11.927Z,8.77
2022-11-21T12:19:16.507Z,8.48
2022-11-21T12:22:06.008Z,7.65
2022-11-21T12:24:54.093Z,7.75
2022-11-21T12:27:55.852Z,8.68
2022-11-21T12:30:44.603Z,7.55
2022-11-21T12:33:44.143Z,9.00
2022-11-21T12:36:44.150Z,8.18
2022-11-21T12:39:44.177Z,9.15
2022-11-21T12:42:58.708Z,9.23
2022-11-21T12:46:07.778Z,9.02
2022-11-21T12:49:37.289Z,9.10
2022-11-21T12:52:50.254Z,8.50
2022-11-21T12:55:41.875Z,9.18
2022-11-21T12:58:51.914Z,9.48
2022-11-21T13:04:37.818Z,8.38
2022-11-21T13:07:29.211Z,9.48
2022-11-21T13:10:16.686Z,8.38
2022-11-21T13:13:07.616Z,9.38
2022-11-21T13:16:08.205Z,8.48
2022-11-21T13:18:53.502Z,9.32
2022-11-21T13:21:47.324Z,8.20
2022-11-21T13:25:33.709Z,9.18
2022-11-21T13:28:20.806Z,8.05
2022-11-21T13:31:29.604Z,8.38
2022-11-21T13:34:36.819Z,8.25
2022-11-21T13:37:49.918Z,8.65
2022-11-21T13:40:39.338Z,8.50
2022-11-21T13:43:33.166Z,8.48
2022-11-21T13:46:58.125Z,8.40
2022-11-21T13:50:08.863Z,8.88
2022-11-21T13:53:38.514Z,7.97
2022-11-21T13:56:36.693Z,7.75
2022-11-21T13:59:54.847Z,8.40
2022-11-21T14:03:10.200Z,9.27
2022-11-21T14:06:19.649Z,9.80
2022-11-21T14:09:14.119Z,9.80
2022-11-21T14:12:05.328Z,9.90
2022-11-21T14:15:02.212Z,9.18
2022-11-21T14:17:52.763Z,8.98
2022-11-21T14:20:53.869Z,8.27
2022-11-21T14:23:43.734Z,7.65
2022-11-21T14:26:38.330Z,7.75
2022-11-21T14:29:28.661Z,8.30
2022-11-21T14:32:14.641Z,7.15
2022-11-21T14:35:10.981Z,7.95
2022-11-21T14:37:57.895Z,8.77
2022-11-21T14:40:42.995Z,9.02
2022-11-21T14:43:32.923Z,9.50
2022-11-21T14:46:20.879Z,10.82
2022-11-21T14:49:21.443Z,10.32
2022-11-21T14:52:16.763Z,9.43
2022-11-21T14:58:15.744Z,9.95
2022-11-21T15:01:05.240Z,10.50
2022-11-21T15:04:07.671Z,10.45
2022-11-21T15:06:52.498Z,9.55
2022-11-21T16:58:19.646Z,7.35
2022-11-21T17:01:12.398Z,8.50
2022-11-21T17:03:57.671Z,8.52
2022-11-21T17:09:26.934Z,8.85
2022-11-21T17:12:12.740Z,8.95
2022-11-21T17:14:57.535Z,9.25
2022-11-21T17:17:42.823Z,9.18
2022-11-21T17:20:27.904Z,8.40
2022-11-21T17:23:12.952Z,8.73
2022-11-21T17:26:09.167Z,7.88
2022-11-21T17:28:59.373Z,8.43
2022-11-21T17:31:44.430Z,9.00
2022-11-21T17:37:18.062Z,8.43
2022-11-21T17:40:03.650Z,8.90
2022-11-21T17:42:48.507Z,9.23
2022-11-21T17:45:36.647Z,9.65
2022-11-21T17:48:21.536Z,9.48
2022-11-21T17:51:17.939Z,8.60
2022-11-21T17:54:03.360Z,8.55
2022-11-21T17:56:53.804Z,8.10
2022-11-21T17:59:41.211Z,8.45
2022-11-21T18:02:26.645Z,7.45
2022-11-21T18:05:11.439Z,7.70
2022-11-21T18:10:43.803Z,7.55
2022-11-21T18:13:31.166Z,7.78
2022-11-21T18:16:19.142Z,8.77
2022-11-21T18:19:03.906Z,8.90
2022-11-21T18:24:33.404Z,7.65
2022-11-21T18:30:03.756Z,7.70
2022-11-21T18:32:49.015Z,7.28
2022-11-21T18:35:33.942Z,7.00
2022-11-21T18:41:24.843Z,5.65
2022-11-21T18:44:09.809Z,5.75
2022-11-21T18:49:39.128Z,6.50
2022-11-21T18:52:24.250Z,6.68
2022-11-21T18:57:53.554Z,6.07
2022-11-21T19:03:23.027Z,5.97
2022-11-21T19:06:17.092Z,6.18
2022-11-21T19:09:01.844Z,6.88
2022-11-21T19:11:47.102Z,6.18
2022-11-21T19:14:31.868Z,7.47
2022-11-21T19:20:01.883Z,6.70
2022-11-21T19:22:46.827Z,7.20
2022-11-21T19:28:16.713Z,6.35
2022-11-21T19:31:03.324Z,7.00
2022-11-21T19:33:48.209Z,6.35
2022-11-21T19:36:33.136Z,6.45
2022-11-21T19:42:02.657Z,6.47
2022-11-21T19:47:33.338Z,6.28
2022-11-21T19:50:18.319Z,7.18
2022-11-21T19:53:02.760Z,7.50
2022-11-21T19:55:47.792Z,7.72
2022-11-21T19:58:32.617Z,8.07
2022-11-21T20:04:05.358Z,8.43
2022-11-21T20:06:50.381Z,7.28
2022-11-21T20:12:20.709Z,6.80
2022-11-21T20:15:06.421Z,6.82
2022-11-21T20:17:52.077Z,6.68
2022-11-21T20:20:36.739Z,6.20
2022-11-21T20:23:21.539Z,7.13
2022-11-21T20:28:53.424Z,6.68
2022-11-21T20:31:38.786Z,6.68
2022-11-21T20:34:23.365Z,6.40
2022-11-21T20:39:52.933Z,6.40
2022-11-21T20:42:38.403Z,7.70
2022-11-21T20:46:07.065Z,7.55
2022-11-21T20:48:27.817Z,7.78
2022-11-21T20:54:18.340Z,7.28
2022-11-21T20:59:47.991Z,7.03
2022-11-21T21:02:32.678Z,7.82
2022-11-21T21:08:02.278Z,6.38
2022-11-21T21:13:51.691Z,8.20
2022-11-21T21:16:36.574Z,7.47
2022-11-21T21:22:08.313Z,7.93
2022-11-21T21:24:53.174Z,7.75
2022-11-21T21:30:23.146Z,7.32
2022-11-21T21:33:09.175Z,8.18
2022-11-21T21:35:53.905Z,8.80
2022-11-21T21:38:39.170Z,10.75
2022-11-21T21:41:25.404Z,10.93
2022-11-21T21:44:09.987Z,11.30
2022-11-21T21:49:39.308Z,9.45
2022-11-21T21:52:24.073Z,10.93
2022-11-21T21:57:54.917Z,8.98
2022-11-21T22:00:41.085Z,9.75
2022-11-21T22:03:26.102Z,10.05
2022-11-21T22:06:14.888Z,9.77
2022-11-21T22:08:59.940Z,8.50
2022-11-21T22:12:03.333Z,8.95
2022-11-21T22:14:48.314Z,9.02
2022-11-21T22:17:33.126Z,9.63
2022-11-21T22:24:32.147Z,8.52
2022-11-21T22:27:17.157Z,7.50
2022-11-21T22:30:01.958Z,7.93
2022-11-21T22:32:47.248Z,7.13
2022-11-21T22:35:32.854Z,7.95
2022-11-21T22:38:18.280Z,7.80
2022-11-21T22:41:12.878Z,8.88
2022-11-21T22:43:58.942Z,8.70
2022-11-21T22:46:43.684Z,8.60
2022-11-21T22:49:29.015Z,8.55
2022-11-21T22:52:14.244Z,8.32
2022-11-21T22:54:59.413Z,8.45
2022-11-21T23:01:08.677Z,7.05
2022-11-21T23:03:55.140Z,6.78
2022-11-21T23:06:48.987Z,8.27
2022-11-21T23:09:34.347Z,8.05
2022-11-21T23:12:18.904Z,7.45
2022-11-21T23:18:39.398Z,7.90
2022-11-21T23:21:24.346Z,7.80
2022-11-21T23:24:09.574Z,7.00
2022-11-21T23:26:54.754Z,8.15
2022-11-21T23:32:24.829Z,7.28
2022-11-21T23:35:09.708Z,7.70
2022-11-21T23:37:54.679Z,7.32
2022-11-21T23:40:39.569Z,6.82
2022-11-21T23:46:09.356Z,7.47
2022-11-21T23:51:39.457Z,7.35
2022-11-21T23:54:24.317Z,7.70
2022-11-21T23:57:09.779Z,9.05
2022-11-21T23:59:54.545Z,8.60
